Weather observations for the past three days for
Nebraska City, Nebraska City Municipal Airport
Imperial (Metric)
Date Time (cdt) Wind (mph) Vis. (mi.) Weather Sky Cond. Temperature (ºF) Relative Humidity Wind Chill (°F) Heat Index (°F) Pressure Precipitation (in)
Air Dwpt 6 hour altimeter (in) sea level (mb) 1 hr 3 hr 6 hr
Max. Min.
30 22:55 SW 3 10.00 Fair CLR 79.7 71.1 75% 83 29.83 0.0
30 22:35 S 5 10.00 Fair CLR 81.5 70.9 70% 86 29.82 0.0
30 22:15 Calm 10.00 Fair CLR 81.3 71.6 72% 86 29.82 0.0
30 21:55 Calm 10.00 Fair CLR 83.8 72.1 68% 90 29.82 0.0
30 21:35 Calm 10.00 Fair CLR 84 72.9 69% 90 29.82 0.0
30 21:15 Calm 10.00 Fair CLR 82.8 74.5 76% 90 29.81 0.0
30 20:55 Calm 10.00 Fair CLR 84.7 74.1 71% 92 29.81 0.0
30 20:35 S 3 10.00 Fair CLR 85.8 74.3 69% 94 29.8 0.0
30 20:15 SE 3 10.00 Fair CLR 86.9 74.3 66% 96 29.8 0.0
30 19:55 SE 3 10.00 Fair CLR 88.3 74.3 63% 97 29.8 0.0
30 19:35 Calm 10.00 Fair CLR 89.8 74.5 61% 100 29.8 0.0
30 19:15 SE 3 10.00 Fair CLR 90.5 77 65% 104 29.8 0.0
30 18:55 Calm 10.00 Fair CLR 92.3 76.5 94.3 89.2 60% 105 29.8 0.0
30 18:35 Calm 10.00 Fair CLR 93.2 75.6 57% 105 29.8 0.0
30 18:15 Calm 10.00 Fair CLR 93.7 74.7 54% 105 29.79 0.0
30 17:55 Calm 10.00 Fair CLR 92.7 75 57% 104 29.79 0.0
30 17:35 Calm 10.00 Fair CLR 92.3 75.2 58% 104 29.79 0.0
30 17:15 SW 5 10.00 Fair CLR 92.7 73.4 54% 102 29.79 0.0
30 16:55 S 7 10.00 Fair CLR 91.6 72.9 54% 100 29.79 0.0
30 16:35 SW 8 10.00 Fair CLR 93.2 70.2 47% 99 29.79 0.0
30 16:15 SW 14 10.00 Fair CLR 94.1 70.5 46% 101 29.8 0.0
30 15:55 SW 10 10.00 Fair CLR 93.6 70.2 47% 100 29.81 0.0
30 15:35 SW 14 G 20 10.00 Fair CLR 93.4 70.3 47% 100 29.81 0.0
30 15:15 SW 10 10.00 Fair CLR 91.4 70.9 51% 98 29.82 0.0
30 14:55 SW 9 10.00 Fair CLR 91.4 71.1 51% 98 29.82 0.0
30 14:35 SW 13 G 17 10.00 Fair CLR 91 69.1 49% 96 29.83 0.0
30 14:15 SW 10 10.00 Fair CLR 91.6 68.9 48% 96 29.82 0.0
30 13:55 SW 14 G 20 10.00 Fair CLR 91.4 67.1 45% 95 29.83 0.0
30 13:35 SW 13 G 22 10.00 Fair CLR 91.6 68 46% 96 29.83 0.0
30 13:15 SW 16 G 20 10.00 Fair CLR 90.1 67.6 48% 94 29.84 0.0
30 12:55 SW 13 G 16 10.00 Fair CLR 90.3 69.3 90.3 72.9 50% 95 29.84 0.0
30 12:35 SW 15 G 21 10.00 Fair CLR 88.2 67.3 50% 91 29.84 0.0
30 12:15 S 13 10.00 Fair CLR 88.7 69.8 54% 94 29.85 0.0
30 11:55 S 9 10.00 Fair CLR 87.1 68.9 55% 91 29.85 0.0
30 11:35 S 13 10.00 Fair CLR 86 68.2 55% 90 29.85 0.0
30 11:15 S 8 10.00 Fair CLR 84.6 66.9 56% 87 29.85 0.0
30 10:55 SW 10 10.00 Fair CLR 84.6 66.4 55% 87 29.85 0.0
30 10:35 SW 12 10.00 Fair CLR 83.7 67.5 58% 87 29.85 0.0
30 10:15 SW 6 10.00 Fair CLR 81.5 66.6 61% 84 29.85 0.0
30 09:55 S 7 10.00 Thunderstorm in Vicinity CLR 81.7 67.1 61% 84 29.84 0.0
30 09:35 S 7 10.00 Fair CLR 79.7 67.1 65% 82 29.84 0.0
30 09:15 S 8 10.00 Fair CLR 76.1 67.6 75% 77 29.83 0.0
30 08:55 S 7 10.00 Fair CLR 76.3 67.1 73% 78 29.83 0.0
30 08:35 S 6 10.00 Fair CLR 76.1 66.4 72% 78 29.84 0.0
30 08:15 S 6 10.00 Fair CLR 75.9 66 72% 77 29.84 0.0
30 07:55 S 5 10.00 Fair CLR 75 66 74% 76 29.85 0.0
30 07:35 S 9 10.00 Fair CLR 73 66.6 80% 29.85 0.0
30 07:15 SE 3 10.00 Fair CLR 75.2 64.4 69% 77 29.85 0.0
30 06:55 Calm 10.00 Fair CLR 73.6 65.7 81 73.2 76% 29.86 0.0
30 06:35 Calm 10.00 Thunderstorm in Vicinity SCT120 74.5 65.8 75% 29.86 0.0
30 06:15 Calm 10.00 Light Rain SCT095 BKN120 77.2 64.4 65% 79 29.84 0.0
30 05:55 SW 8 10.00 Mostly Cloudy SCT095 BKN120 78.3 63.5 61% 80 29.83 0.0
30 05:35 SW 10 10.00 Thunderstorm BKN120 79 63.5 59% 81 29.84 0.0
30 05:15 SW 10 10.00 Partly Cloudy SCT120 78.8 63.7 60% 80 29.84 0.0
30 04:55 SW 12 10.00 Fair CLR 79.2 63.5 59% 81 29.84 0.0
30 04:35 SW 10 10.00 Fair CLR 79 63.7 60% 81 29.84 0.0
30 04:15 SW 13 10.00 Fair CLR 79.3 63.9 59% 81 29.84 0.0
30 03:55 SW 12 10.00 Fair CLR 79.7 64 59% 81 29.84 0.0
30 03:35 SW 12 10.00 Fair CLR 79.7 64.2 59% 81 29.84 0.0
30 03:15 S 13 G 17 10.00 Fair CLR 80.1 64.4 59% 82 29.84 0.0
30 02:55 SW 14 G 18 10.00 Fair CLR 80.2 64.2 58% 82 29.84 0.0
30 02:35 SW 16 10.00 Fair CLR 80.8 64.2 57% 82 29.84 0.0
30 02:15 SW 13 G 21 10.00 Fair CLR 80.8 64.4 58% 82 29.84 0.0
30 01:55 SW 15 G 21 10.00 Fair CLR 80.4 64.4 58% 82 29.84 0.0
30 01:35 SW 13 G 18 10.00 Fair CLR 79.7 64.6 60% 81 29.85 0.0
30 01:15 S 14 G 20 10.00 Fair CLR 79.3 64.9 62% 81 29.84 0.0
30 00:55 S 13 10.00 Fair CLR 79.2 65.3 87.1 77.9 63% 81 29.84 0.0
30 00:35 S 14 G 18 10.00 Fair CLR 78.8 65.7 64% 81 29.84 0.0
30 00:15 S 12 10.00 Fair CLR 78.1 66.2 67% 80 29.84 0.0
29 23:55 S 10 10.00 Fair CLR 77.9 66.4 68% 80 29.84 0.0
29 23:35 S 12 10.00 Fair CLR 78.3 66.7 68% 80 29.84 0.0
29 23:15 S 12 10.00 Fair CLR 78.8 67.1 67% 81 29.84 0.0
29 22:55 S 12 10.00 Fair CLR 79.7 67.1 65% 82 29.84 0.0
29 22:35 S 14 10.00 Fair CLR 80.2 67.1 64% 83 29.84 0.0
29 22:15 S 14 10.00 Fair CLR 80.6 67.5 64% 83 29.84 0.0
29 21:55 S 14 10.00 Fair CLR 80.8 67.6 64% 83 29.83 0.0
29 21:35 S 14 10.00 Fair CLR 81.5 67.8 63% 84 29.83 0.0
29 21:15 S 14 10.00 Fair CLR 81.9 68 63% 85 29.82 0.0
29 20:55 S 13 10.00 Fair CLR 82.4 68.2 62% 85 29.81 0.0
29 20:35 S 13 10.00 Fair CLR 82.8 68.7 63% 86 29.81 0.0
29 20:15 S 12 10.00 Fair CLR 83.1 69.6 64% 87 29.81 0.0
29 19:55 S 12 10.00 Fair CLR 84.2 70.3 63% 89 29.81 0.0
29 19:35 S 13 10.00 Fair CLR 84.9 71.1 63% 90 29.81 0.0
29 19:15 S 12 10.00 Fair CLR 85.6 71.6 63% 91 29.81 0.0
29 18:55 S 10 10.00 Fair CLR 87.3 72.3 90.9 82.4 61% 94 29.81 0.0
29 18:35 S 12 10.00 Fair CLR 88.3 73 61% 96 29.82 0.0
29 18:15 S 12 10.00 Fair CLR 88.7 73 60% 97 29.82 0.0
29 17:35 S 12 G 17 10.00 Fair CLR 89.6 72.9 58% 98 29.83 0.0
29 17:15 S 12 10.00 Fair CLR 89.6 72.1 56% 97 29.83 0.0
29 16:55 S 14 G 18 10.00 Fair CLR 89.8 72 56% 97 29.83 0.0
29 16:35 S 13 G 17 10.00 Fair CLR 90.5 72.1 55% 98 29.83 0.0
29 16:15 S 10 G 22 10.00 Fair CLR 87.8 69.1 54% 92 29.84 0.0
29 15:55 S 14 G 20 10.00 Fair CLR 90 69.1 50% 95 29.84 0.0
29 15:35 S 12 G 20 10.00 Fair CLR 90 69.6 51% 95 29.86 0.0
29 15:15 S 15 G 21 10.00 Fair CLR 89.6 69.6 52% 95 29.86 0.0
29 14:55 SW 15 G 21 10.00 Fair CLR 86.4 67.6 54% 90 29.86 0.0
29 14:35 S 13 10.00 Fair CLR 86 68.9 57% 90 29.87 0.0
29 14:15 S 15 10.00 Fair CLR 86.4 67.8 54% 90 29.87 0.0
29 13:55 S 15 G 20 10.00 Fair CLR 84.2 67.5 57% 87 29.87 0.0
29 13:35 S 15 G 23 10.00 Fair CLR 85.5 67.6 55% 89 29.89 0.0
29 13:15 S 13 10.00 Fair CLR 85.3 68.7 58% 89 29.9 0.0
29 12:55 S 13 10.00 Fair CLR 82.4 66.6 84.2 65.7 59% 85 29.91 0.0
29 12:35 S 14 10.00 Fair CLR 83.7 66 55% 86 29.92 0.0
29 12:15 S 18 G 22 10.00 Fair CLR 83.3 64.8 54% 85 29.92 0.0
29 11:55 S 16 G 23 10.00 Fair CLR 81.9 64.2 55% 83 29.92 0.0
29 11:35 S 14 10.00 Fair CLR 79.7 63.5 58% 81 29.93 0.0
29 11:15 S 14 10.00 Fair CLR 78.8 63.3 59% 80 29.94 0.0
29 10:55 S 12 10.00 Fair CLR 77 63 62% 79 29.94 0.0
29 10:35 S 10 10.00 Fair CLR 75.7 62.4 63% 78 29.94 0.0
29 10:15 S 13 10.00 Fair CLR 75.2 62.6 65% 77 29.95 0.0
29 09:55 S 10 10.00 Fair CLR 73.9 61.9 66% 29.96 0.0
29 09:35 S 14 10.00 Fair CLR 73.4 61.3 66% 29.96 0.0
29 09:15 S 15 G 21 10.00 Fair CLR 73 60.8 66% 29.96 0.0
29 08:55 S 13 10.00 Fair CLR 70.7 60.3 70% 29.96 0.0
29 08:35 S 13 10.00 Fair CLR 69.8 60.1 71% 29.96 0.0
29 08:15 S 13 10.00 Fair CLR 68.5 60.1 75% 29.96 0.0
29 07:55 S 10 10.00 Fair CLR 67.1 60.1 78% 29.97 0.0
29 07:35 S 9 10.00 Fair CLR 66.4 59.9 80% 29.97 0.0
29 07:15 S 10 10.00 Fair CLR 66.2 59.5 79% 29.97 0.0
29 06:55 S 9 10.00 Fair CLR 65.7 59.7 69.8 65.5 81% 29.97 0.0
29 06:35 S 9 10.00 Fair CLR 65.5 59.9 82% 29.97 0.0
29 06:15 S 9 10.00 Fair CLR 65.8 59.9 81% 29.97 0.0
29 05:55 S 10 10.00 Fair CLR 65.8 60.3 82% 29.98 0.0
29 05:35 S 9 10.00 Fair CLR 66.6 60.4 81% 29.99 0.0
29 05:15 S 12 10.00 Fair CLR 66.7 60.3 80% 29.99 0.0
29 04:55 S 12 10.00 Fair CLR 67.1 60.4 79% 29.99 0.0
29 04:35 S 12 G 17 10.00 Fair CLR 67.5 60.8 79% 29.99 0.0
29 04:15 S 14 10.00 Fair CLR 68 60.8 78% 29.99 0.0
29 03:55 S 13 10.00 Fair CLR 68 61 78% 30 0.0
29 03:35 S 13 10.00 Fair CLR 68.2 61.2 78% 30 0.0
29 03:15 S 13 10.00 Fair CLR 68.5 61.7 79% 30.01 0.0
29 02:55 S 13 10.00 Fair CLR 68.9 61.7 78% 30.01 0.0
29 02:35 S 13 10.00 Fair CLR 68.9 61.9 78% 30.01 0.0
29 02:15 S 13 10.00 Fair CLR 68.9 62.2 79% 30.01 0.0
29 01:55 S 12 10.00 Fair CLR 69.1 62.4 79% 30.02 0.0
29 01:35 S 12 10.00 Fair CLR 69.8 62.2 77% 30.02 0.0
29 01:15 S 12 10.00 Fair CLR 69.4 62.6 79% 30.02 0.0
29 00:55 S 9 10.00 Fair CLR 69.4 62.8 81.5 68.9 79% 30.03 0.0
29 00:35 S 9 10.00 Fair CLR 69.1 63.3 82% 30.02 0.0
29 00:15 S 8 10.00 Fair CLR 69.1 63.7 83% 30.03 0.0
28 23:55 S 7 10.00 Fair CLR 69.1 64 84% 30.02 0.0
28 23:35 S 8 10.00 Fair CLR 69.1 64 84% 30.03 0.0
28 23:15 S 7 10.00 Fair CLR 70 63.7 81% 30.03 0.0
28 22:55 S 8 10.00 Fair CLR 70.2 63.9 81% 30.03 0.0
28 22:35 S 7 10.00 Fair CLR 70.7 64 80% 30.03 0.0
28 22:15 S 8 10.00 Fair CLR 71.1 64 79% 30.03 0.0
28 21:55 S 8 10.00 Fair CLR 71.1 64.4 80% 30.03 0.0
28 21:35 S 7 10.00 Fair CLR 71.6 64.4 78% 30.03 0.0
28 21:15 S 7 10.00 Fair CLR 72 64.6 78% 30.03 0.0
28 20:55 S 7 10.00 Fair CLR 72 64.8 78% 30.02 0.0
28 20:35 S 5 10.00 Fair CLR 72.9 64.9 76% 30.02 0.0
28 20:15 S 6 10.00 Fair CLR 74.1 65.3 74% 30.02 0.0
28 19:55 S 5 10.00 Fair CLR 75.7 65.5 71% 77 30.02 0.0
28 19:35 S 7 10.00 Fair CLR 78.1 65.7 66% 80 30.03 0.0
28 19:15 S 8 10.00 Fair CLR 79.9 66.2 63% 82 30.03 0.0
28 18:55 S 7 10.00 Fair CLR 81.5 66.4 84.7 81.1 60% 84 30.04 0.0
28 18:35 S 8 10.00 Fair CLR 82.4 65.3 56% 84 30.04 0.0
28 18:15 S 10 10.00 Fair CLR 82.9 65.5 56% 85 30.04 0.0
28 17:55 S 13 10.00 Fair CLR 83.7 66 55% 86 30.04 0.0
28 17:35 S 12 10.00 Fair CLR 83.8 64.9 53% 86 30.04 0.0
28 17:15 S 10 10.00 Fair CLR 84.2 65.7 54% 86 30.05 0.0
28 16:55 S 13 G 16 10.00 Fair CLR 84.4 65.5 53% 86 30.06 0.0
28 16:35 S 13 10.00 Fair CLR 84.2 65.3 53% 86 30.07 0.0
28 16:15 S 10 10.00 Fair CLR 84.4 65.5 53% 86 30.08 0.0
28 15:55 S 13 G 18 10.00 Fair CLR 84.6 65.7 53% 87 30.08 0.0
28 15:35 S 10 10.00 Fair CLR 84 65.1 53% 86 30.08 0.0
28 15:15 S 10 G 17 10.00 Fair CLR 84.2 64.6 52% 86 30.09 0.0
28 14:55 S 12 10.00 Fair CLR 84 64.4 52% 86 30.09 0.0
28 14:35 S 9 10.00 Fair CLR 83.3 64 52% 85 30.1 0.0
28 14:15 S 12 10.00 Fair CLR 83.3 64 52% 85 30.11 0.0
28 13:55 SE 12 10.00 Fair CLR 83.1 64.2 53% 85 30.12 0.0
28 13:35 S 12 G 17 10.00 Fair CLR 82 64.8 56% 84 30.12 0.0
28 13:15 S 10 10.00 Fair CLR 81.5 63.9 55% 83 30.13 0.0
28 12:55 S 12 10.00 Fair CLR 81.3 64.2 81.9 63.5 56% 83 30.13 0.0
28 12:35 S 12 G 20 10.00 Fair CLR 81.3 64 56% 83 30.14 0.0
28 12:15 SW 12 G 17 10.00 Fair CLR 80.1 64.6 59% 82 30.15 0.0
28 11:55 S 9 10.00 Fair CLR 80.1 64.6 59% 82 30.16 0.0
28 11:35 S 9 10.00 Fair CLR 79.3 63.7 59% 81 30.16 0.0
28 11:15 S 13 10.00 Fair CLR 78.3 62.8 59% 80 30.16 0.0
28 10:55 SW 12 10.00 Fair CLR 77.9 64 63% 80 30.16 0.0
28 10:35 S 13 G 16 10.00 Fair CLR 77 64 64% 79 30.16 0.0
28 10:15 S 10 10.00 Fair CLR 75.7 64.2 68% 78 30.16 0.0
28 09:55 S 8 10.00 Fair CLR 74.7 64 70% 30.16 0.0
28 09:35 S 10 10.00 Fair CLR 73.4 63.9 72% 30.16 0.0
28 09:15 S 7 10.00 Fair CLR 71.6 64.9 80% 30.15 0.0
28 08:55 S 7 10.00 Fair CLR 68.9 64 85% 30.15 0.0
28 08:35 S 6 10.00 Fair CLR 66.9 63.5 89% 30.16 0.0
28 08:15 S 6 10.00 Fair CLR 64.9 63.1 94% 30.16 0.0
28 07:55 S 7 10.00 Fair CLR 63.5 62.1 95% 30.16 0.0
28 07:35 S 6 10.00 Fair CLR 63.9 62.6 96% 30.15 0.0
28 07:15 Calm 10.00 Fair CLR 64 62.6 95% 30.15 0.0
28 06:55 Calm 10.00 Partly Cloudy SCT090 SCT120 63.9 62.6 67.8 63 96% 30.16 0.0 0.01 0.01
28 06:35 Calm 7.00 Light Rain SCT033 SCT070 BKN120 64.8 62.6 93% 30.16 0.0 0.01
28 06:15 NW 6 10.00 Light Rain SCT110 64.2 62.1 93% 30.16 0.0
28 05:55 Calm 10.00 Mostly Cloudy SCT070 SCT095 BKN120 65.1 61.7 89% 30.14 0.0
28 05:35 SE 3 10.00 Mostly Cloudy SCT070 BKN095 BKN120 65.3 61.2 87% 30.13 0.0
28 05:15 SW 3 10.00 Partly Cloudy SCT085 64.6 61 88% 30.14 0.0
28 04:55 W 9 10.00 Mostly Cloudy SCT070 BKN095 BKN120 64.8 61 88% 30.14 0.0
28 04:35 Calm 10.00 Mostly Cloudy SCT070 BKN095 BKN120 65.5 60.4 84% 30.13 0.0
28 04:15 S 5 10.00 Partly Cloudy SCT085 SCT110 64.6 60.3 86% 30.12 0.0
28 03:55 S 5 10.00 Fair CLR 63.3 60.3 90% 30.11 0.0
28 03:35 S 6 10.00 Fair CLR 63.3 60.1 89% 30.11 0.0
28 03:15 S 6 10.00 Fair CLR 64 60.6 89% 30.11 0.0
28 02:55 S 5 10.00 Fair CLR 64 61.3 91% 30.11 0.0
28 02:35 S 5 10.00 Fair CLR 64.6 61.5 90% 30.11 0.0
28 02:15 S 6 10.00 Fair CLR 65.3 61.7 88% 30.11 0.0
28 01:55 S 6 10.00 Fair CLR 66.2 61.7 86% 30.11 0.0
28 01:35 S 6 10.00 Fair CLR 67.3 62.2 84% 30.11 0.0
28 01:15 S 5 10.00 Fair CLR 67.1 62.1 84% 30.12 0.0
28 00:55 S 3 10.00 Fair CLR 68 62.4 79.5 66.6 82% 30.12 0.0
28 00:35 S 3 10.00 Fair CLR 67.5 62.8 85% 30.11 0.0
28 00:15 SE 6 10.00 Fair CLR 68.9 63 81% 30.11 0.0
27 23:55 S 5 10.00 Fair CLR 69.3 63.1 81% 30.11 0.0
27 23:35 S 5 10.00 Fair CLR 69.8 63.5 81% 30.11 0.0
27 23:15 S 3 10.00 Fair CLR 69.3 63.5 82% 30.11 0.0
Date Time (cdt) Wind (mph) Vis. (mi.) Weather Sky Cond. Air Dwpt Max. Min. Relative Humidity Wind Chill (°F) Heat Index (°F) altimeter (in) sea level (mb) 1 hr 3 hr 6 hr
6 hour
Temperature (ºF) Pressure Precipitation (in)